This is the latest recevied weather packets stored in our database for station/object OE3AOG-10. If no packets are shown the sender has not sent any weather packets the latest 10 day(s).
| Time | Temp. | Humidity | Pressure | Rain* | Wind** | Luminosity | Snow |
|---|---|---|---|---|---|---|---|
| 1787888506 | 20° C | 59% | 1017.8 hPa | - | - | - | - |
| 1787884906 | 20° C | 60% | 1017.5 hPa | - | - | - | - |
| 1787881306 | 20.56° C | 59% | 1017.7 hPa | - | - | - | - |
| 1787877708 | 21.11° C | 57% | 1018 hPa | - | - | - | - |
| 1787874108 | 21.67° C | 54% | 1018.2 hPa | - | - | - | - |
| 1787870507 | 22.78° C | 52% | 1018.5 hPa | - | - | - | - |
| 1787866906 | 23.33° C | 50% | 1018.9 hPa | - | - | - | - |
| 1787863306 | 23.89° C | 49% | 1019.1 hPa | - | - | - | - |
| 1787859706 | 25° C | 46% | 1019 hPa | - | - | - | - |
| 1787856107 | 25.56° C | 44% | 1018.6 hPa | - | - | - | - |
| 1787852507 | 27.78° C | 38% | 1018.1 hPa | - | - | - | - |
| 1787848907 | 29.44° C | 36% | 1017.9 hPa | - | - | - | - |
| 1787845306 | 31.11° C | 33% | 1018.2 hPa | - | - | - | - |
| 1787841706 | 33.33° C | 31% | 1018.1 hPa | - | - | - | - |
| 1787838105 | 33.89° C | 32% | 1018.2 hPa | - | - | - | - |
| 1787834508 | 33.89° C | 34% | 1018.7 hPa | - | - | - | - |
| 1787830907 | 32.22° C | 38% | 1019.4 hPa | - | - | - | - |
| 1787827307 | 30.56° C | 41% | 1019.7 hPa | - | - | - | - |
| 1787823707 | 27.78° C | 48% | 1019.9 hPa | - | - | - | - |
| 1787820107 | 25° C | 54% | 1020 hPa | - | - | - | - |
| 1787816506 | 22.78° C | 60% | 1020 hPa | - | - | - | - |
| 1787812907 | 20° C | 66% | 1020.1 hPa | - | - | - | - |
| 1787809307 | 18.33° C | 70% | 1019.7 hPa | - | - | - | - |
| 1787805707 | 16.67° C | 71% | 1019.5 hPa | - | - | - | - |
| 1787802107 | 16.67° C | 70% | 1019.5 hPa | - | - | - | - |
* Rain since midnight (hover to see other rain measurements)
** Current wind speed in m/s (hover to see current wind gust speed)